sensor_id;sensor_type;location;lat;lon;timestamp;P1;durP1;ratioP1;P2;durP2;ratioP2
74371;SDS011;62885;51.374;6.170;2023-12-20T00:02:09;8.18;;;3.47;;
74371;SDS011;62885;51.374;6.170;2023-12-20T00:04:34;8.05;;;2.92;;
74371;SDS011;62885;51.374;6.170;2023-12-20T00:06:59;7.40;;;3.63;;
74371;SDS011;62885;51.374;6.170;2023-12-20T00:09:26;7.05;;;3.40;;
74371;SDS011;62885;51.374;6.170;2023-12-20T00:11:52;8.20;;;3.53;;
74371;SDS011;62885;51.374;6.170;2023-12-20T00:14:17;11.68;;;3.33;;
74371;SDS011;62885;51.374;6.170;2023-12-20T00:16:42;9.65;;;3.63;;
74371;SDS011;62885;51.374;6.170;2023-12-20T00:19:08;9.27;;;3.97;;
74371;SDS011;62885;51.374;6.170;2023-12-20T00:21:33;10.85;;;4.13;;
74371;SDS011;62885;51.374;6.170;2023-12-20T00:23:58;8.68;;;3.75;;
74371;SDS011;62885;51.374;6.170;2023-12-20T00:26:24;9.57;;;4.60;;
74371;SDS011;62885;51.374;6.170;2023-12-20T00:28:49;11.77;;;5.10;;
74371;SDS011;62885;51.374;6.170;2023-12-20T00:31:14;13.23;;;5.37;;
74371;SDS011;62885;51.374;6.170;2023-12-20T00:33:40;14.57;;;5.35;;
74371;SDS011;62885;51.374;6.170;2023-12-20T00:36:08;12.65;;;6.47;;
74371;SDS011;62885;51.374;6.170;2023-12-20T00:38:33;9.85;;;5.30;;
74371;SDS011;62885;51.374;6.170;2023-12-20T00:40:59;12.88;;;5.43;;
74371;SDS011;62885;51.374;6.170;2023-12-20T00:43:24;11.23;;;5.85;;
74371;SDS011;62885;51.374;6.170;2023-12-20T00:45:49;11.07;;;5.20;;
74371;SDS011;62885;51.374;6.170;2023-12-20T00:48:15;12.60;;;5.72;;
74371;SDS011;62885;51.374;6.170;2023-12-20T00:50:40;12.63;;;5.43;;
74371;SDS011;62885;51.374;6.170;2023-12-20T00:53:05;9.38;;;5.10;;
74371;SDS011;62885;51.374;6.170;2023-12-20T00:55:31;13.65;;;4.65;;
74371;SDS011;62885;51.374;6.170;2023-12-20T00:57:56;11.18;;;4.22;;
74371;SDS011;62885;51.374;6.170;2023-12-20T01:00:21;11.68;;;4.35;;
74371;SDS011;62885;51.374;6.170;2023-12-20T01:02:47;11.57;;;3.70;;
74371;SDS011;62885;51.374;6.170;2023-12-20T01:05:14;9.88;;;4.03;;
74371;SDS011;62885;51.374;6.170;2023-12-20T01:07:40;13.88;;;4.03;;
74371;SDS011;62885;51.374;6.170;2023-12-20T01:10:05;10.88;;;3.63;;
74371;SDS011;62885;51.374;6.170;2023-12-20T01:12:31;9.02;;;3.50;;
74371;SDS011;62885;51.374;6.170;2023-12-20T01:14:56;8.35;;;3.45;;
74371;SDS011;62885;51.374;6.170;2023-12-20T01:17:22;9.68;;;3.28;;
74371;SDS011;62885;51.374;6.170;2023-12-20T01:19:48;11.07;;;3.17;;
74371;SDS011;62885;51.374;6.170;2023-12-20T01:22:13;11.57;;;3.35;;
74371;SDS011;62885;51.374;6.170;2023-12-20T01:24:38;9.02;;;2.72;;
74371;SDS011;62885;51.374;6.170;2023-12-20T01:27:04;10.75;;;2.92;;
74371;SDS011;62885;51.374;6.170;2023-12-20T01:29:29;8.23;;;2.75;;
74371;SDS011;62885;51.374;6.170;2023-12-20T01:31:54;8.10;;;2.90;;
74371;SDS011;62885;51.374;6.170;2023-12-20T01:34:20;6.65;;;2.60;;
74371;SDS011;62885;51.374;6.170;2023-12-20T01:36:46;11.48;;;2.60;;
74371;SDS011;62885;51.374;6.170;2023-12-20T01:39:11;10.50;;;2.15;;
74371;SDS011;62885;51.374;6.170;2023-12-20T01:41:36;8.25;;;2.25;;
74371;SDS011;62885;51.374;6.170;2023-12-20T01:44:02;7.90;;;2.60;;
74371;SDS011;62885;51.374;6.170;2023-12-20T01:46:27;7.25;;;2.08;;
74371;SDS011;62885;51.374;6.170;2023-12-20T01:48:52;6.20;;;2.20;;
74371;SDS011;62885;51.374;6.170;2023-12-20T01:51:18;7.63;;;2.70;;
74371;SDS011;62885;51.374;6.170;2023-12-20T01:53:45;5.68;;;1.90;;
74371;SDS011;62885;51.374;6.170;2023-12-20T01:56:11;7.60;;;1.88;;
74371;SDS011;62885;51.374;6.170;2023-12-20T01:58:43;8.32;;;1.85;;
74371;SDS011;62885;51.374;6.170;2023-12-20T02:01:10;4.55;;;1.85;;
74371;SDS011;62885;51.374;6.170;2023-12-20T02:03:35;5.47;;;1.55;;
74371;SDS011;62885;51.374;6.170;2023-12-20T02:06:02;9.70;;;1.88;;
74371;SDS011;62885;51.374;6.170;2023-12-20T02:08:28;7.07;;;1.60;;
74371;SDS011;62885;51.374;6.170;2023-12-20T02:10:53;9.80;;;1.65;;
74371;SDS011;62885;51.374;6.170;2023-12-20T02:13:20;5.15;;;1.52;;
74371;SDS011;62885;51.374;6.170;2023-12-20T02:15:45;6.65;;;1.85;;
74371;SDS011;62885;51.374;6.170;2023-12-20T02:18:10;9.02;;;1.77;;
74371;SDS011;62885;51.374;6.170;2023-12-20T02:20:40;7.05;;;1.77;;
74371;SDS011;62885;51.374;6.170;2023-12-20T02:23:05;7.93;;;1.75;;
74371;SDS011;62885;51.374;6.170;2023-12-20T02:25:30;9.23;;;1.92;;
74371;SDS011;62885;51.374;6.170;2023-12-20T02:27:56;8.93;;;1.63;;
74371;SDS011;62885;51.374;6.170;2023-12-20T02:30:21;6.82;;;1.40;;
74371;SDS011;62885;51.374;6.170;2023-12-20T02:32:47;8.88;;;1.90;;
74371;SDS011;62885;51.374;6.170;2023-12-20T02:35:13;7.13;;;1.25;;
74371;SDS011;62885;51.374;6.170;2023-12-20T02:37:39;5.47;;;1.40;;
74371;SDS011;62885;51.374;6.170;2023-12-20T02:40:04;5.90;;;1.48;;
74371;SDS011;62885;51.374;6.170;2023-12-20T02:42:30;7.70;;;1.83;;
74371;SDS011;62885;51.374;6.170;2023-12-20T02:44:55;7.97;;;1.60;;
74371;SDS011;62885;51.374;6.170;2023-12-20T02:47:20;7.07;;;1.23;;
74371;SDS011;62885;51.374;6.170;2023-12-20T02:49:46;9.13;;;1.50;;
74371;SDS011;62885;51.374;6.170;2023-12-20T02:52:11;3.72;;;1.30;;
74371;SDS011;62885;51.374;6.170;2023-12-20T02:54:36;11.30;;;1.98;;
74371;SDS011;62885;51.374;6.170;2023-12-20T02:57:04;6.53;;;1.63;;
74371;SDS011;62885;51.374;6.170;2023-12-20T02:59:30;5.55;;;1.40;;
74371;SDS011;62885;51.374;6.170;2023-12-20T03:01:55;9.48;;;1.45;;
74371;SDS011;62885;51.374;6.170;2023-12-20T03:04:20;8.95;;;2.25;;
74371;SDS011;62885;51.374;6.170;2023-12-20T03:06:46;6.53;;;1.60;;
74371;SDS011;62885;51.374;6.170;2023-12-20T03:09:11;4.22;;;1.70;;
74371;SDS011;62885;51.374;6.170;2023-12-20T03:11:37;7.35;;;1.42;;
74371;SDS011;62885;51.374;6.170;2023-12-20T03:14:02;4.53;;;1.60;;
74371;SDS011;62885;51.374;6.170;2023-12-20T03:16:27;9.50;;;1.67;;
74371;SDS011;62885;51.374;6.170;2023-12-20T03:18:53;7.85;;;1.92;;
74371;SDS011;62885;51.374;6.170;2023-12-20T03:21:18;7.40;;;2.05;;
74371;SDS011;62885;51.374;6.170;2023-12-20T03:23:44;4.70;;;1.50;;
74371;SDS011;62885;51.374;6.170;2023-12-20T03:26:10;7.15;;;1.85;;
74371;SDS011;62885;51.374;6.170;2023-12-20T03:28:36;9.52;;;1.90;;
74371;SDS011;62885;51.374;6.170;2023-12-20T03:31:01;8.23;;;1.58;;
74371;SDS011;62885;51.374;6.170;2023-12-20T03:33:27;6.05;;;1.80;;
74371;SDS011;62885;51.374;6.170;2023-12-20T03:35:53;9.52;;;2.55;;
74371;SDS011;62885;51.374;6.170;2023-12-20T03:38:18;5.93;;;2.08;;
74371;SDS011;62885;51.374;6.170;2023-12-20T03:40:44;7.20;;;1.80;;
74371;SDS011;62885;51.374;6.170;2023-12-20T03:43:09;14.77;;;2.80;;
74371;SDS011;62885;51.374;6.170;2023-12-20T03:45:34;8.60;;;1.92;;
74371;SDS011;62885;51.374;6.170;2023-12-20T03:48:00;8.13;;;1.75;;
74371;SDS011;62885;51.374;6.170;2023-12-20T03:50:26;7.00;;;1.40;;
74371;SDS011;62885;51.374;6.170;2023-12-20T03:52:51;10.63;;;1.92;;
74371;SDS011;62885;51.374;6.170;2023-12-20T03:55:17;7.43;;;1.70;;
74371;SDS011;62885;51.374;6.170;2023-12-20T03:57:42;5.75;;;1.80;;
74371;SDS011;62885;51.374;6.170;2023-12-20T04:00:08;7.32;;;1.77;;
74371;SDS011;62885;51.374;6.170;2023-12-20T04:02:37;7.38;;;2.03;;
74371;SDS011;62885;51.374;6.170;2023-12-20T04:05:03;10.43;;;2.58;;
74371;SDS011;62885;51.374;6.170;2023-12-20T04:07:29;10.63;;;2.60;;
74371;SDS011;62885;51.374;6.170;2023-12-20T04:09:55;10.80;;;2.10;;
74371;SDS011;62885;51.374;6.170;2023-12-20T04:12:20;10.33;;;2.37;;
74371;SDS011;62885;51.374;6.170;2023-12-20T04:14:46;8.30;;;2.47;;
74371;SDS011;62885;51.374;6.170;2023-12-20T04:17:11;7.97;;;1.88;;
74371;SDS011;62885;51.374;6.170;2023-12-20T04:19:36;16.95;;;2.83;;
74371;SDS011;62885;51.374;6.170;2023-12-20T04:22:01;7.88;;;3.33;;
74371;SDS011;62885;51.374;6.170;2023-12-20T04:24:27;6.03;;;2.50;;
74371;SDS011;62885;51.374;6.170;2023-12-20T04:26:52;11.00;;;2.75;;
74371;SDS011;62885;51.374;6.170;2023-12-20T04:29:18;15.02;;;2.63;;
74371;SDS011;62885;51.374;6.170;2023-12-20T04:31:43;6.68;;;2.30;;
74371;SDS011;62885;51.374;6.170;2023-12-20T04:34:08;11.20;;;2.45;;
74371;SDS011;62885;51.374;6.170;2023-12-20T04:36:34;10.30;;;2.83;;
74371;SDS011;62885;51.374;6.170;2023-12-20T04:38:59;9.15;;;2.80;;
74371;SDS011;62885;51.374;6.170;2023-12-20T04:41:24;11.60;;;2.60;;
74371;SDS011;62885;51.374;6.170;2023-12-20T04:43:50;9.02;;;2.38;;
74371;SDS011;62885;51.374;6.170;2023-12-20T04:46:15;8.10;;;2.15;;
74371;SDS011;62885;51.374;6.170;2023-12-20T04:48:40;8.48;;;2.22;;
74371;SDS011;62885;51.374;6.170;2023-12-20T04:51:06;8.30;;;2.88;;
74371;SDS011;62885;51.374;6.170;2023-12-20T04:53:31;13.30;;;2.85;;
74371;SDS011;62885;51.374;6.170;2023-12-20T04:55:56;10.40;;;2.13;;
74371;SDS011;62885;51.374;6.170;2023-12-20T04:58:22;9.93;;;2.67;;
74371;SDS011;62885;51.374;6.170;2023-12-20T05:00:47;10.80;;;2.45;;
74371;SDS011;62885;51.374;6.170;2023-12-20T05:03:13;12.27;;;3.10;;
74371;SDS011;62885;51.374;6.170;2023-12-20T05:05:38;9.52;;;2.63;;
74371;SDS011;62885;51.374;6.170;2023-12-20T05:08:04;14.65;;;2.92;;
74371;SDS011;62885;51.374;6.170;2023-12-20T05:10:32;10.68;;;3.05;;
74371;SDS011;62885;51.374;6.170;2023-12-20T05:12:57;8.55;;;2.45;;
74371;SDS011;62885;51.374;6.170;2023-12-20T05:15:23;8.75;;;2.92;;
74371;SDS011;62885;51.374;6.170;2023-12-20T05:17:48;8.88;;;2.80;;
74371;SDS011;62885;51.374;6.170;2023-12-20T05:20:13;11.50;;;2.80;;
74371;SDS011;62885;51.374;6.170;2023-12-20T05:22:39;14.55;;;3.33;;
74371;SDS011;62885;51.374;6.170;2023-12-20T05:25:06;11.35;;;2.53;;
74371;SDS011;62885;51.374;6.170;2023-12-20T05:27:31;8.90;;;2.47;;
74371;SDS011;62885;51.374;6.170;2023-12-20T05:29:57;9.55;;;2.70;;
74371;SDS011;62885;51.374;6.170;2023-12-20T05:32:22;12.60;;;2.88;;
74371;SDS011;62885;51.374;6.170;2023-12-20T05:34:48;11.85;;;3.05;;
74371;SDS011;62885;51.374;6.170;2023-12-20T05:37:14;13.45;;;3.08;;
74371;SDS011;62885;51.374;6.170;2023-12-20T05:39:39;14.18;;;2.75;;
74371;SDS011;62885;51.374;6.170;2023-12-20T05:42:04;13.57;;;2.95;;
74371;SDS011;62885;51.374;6.170;2023-12-20T05:44:30;9.38;;;2.75;;
74371;SDS011;62885;51.374;6.170;2023-12-20T05:46:55;8.60;;;3.10;;
74371;SDS011;62885;51.374;6.170;2023-12-20T05:49:20;6.72;;;2.17;;
74371;SDS011;62885;51.374;6.170;2023-12-20T05:51:46;11.00;;;2.58;;
74371;SDS011;62885;51.374;6.170;2023-12-20T05:54:12;6.10;;;2.05;;
74371;SDS011;62885;51.374;6.170;2023-12-20T05:56:37;10.70;;;2.63;;
74371;SDS011;62885;51.374;6.170;2023-12-20T05:59:03;7.50;;;3.15;;
74371;SDS011;62885;51.374;6.170;2023-12-20T06:01:28;12.60;;;2.60;;
74371;SDS011;62885;51.374;6.170;2023-12-20T06:03:53;11.40;;;2.42;;
74371;SDS011;62885;51.374;6.170;2023-12-20T06:06:19;9.18;;;2.30;;
74371;SDS011;62885;51.374;6.170;2023-12-20T06:08:44;9.27;;;2.17;;
74371;SDS011;62885;51.374;6.170;2023-12-20T06:11:09;6.82;;;2.17;;
74371;SDS011;62885;51.374;6.170;2023-12-20T06:13:35;8.93;;;2.33;;
74371;SDS011;62885;51.374;6.170;2023-12-20T06:16:00;8.20;;;2.05;;
74371;SDS011;62885;51.374;6.170;2023-12-20T06:18:26;14.55;;;2.70;;
74371;SDS011;62885;51.374;6.170;2023-12-20T06:20:51;14.30;;;3.92;;
74371;SDS011;62885;51.374;6.170;2023-12-20T06:23:16;15.05;;;3.67;;
74371;SDS011;62885;51.374;6.170;2023-12-20T06:25:42;9.18;;;2.63;;
74371;SDS011;62885;51.374;6.170;2023-12-20T06:28:07;15.60;;;3.43;;
74371;SDS011;62885;51.374;6.170;2023-12-20T06:30:35;11.77;;;2.63;;
74371;SDS011;62885;51.374;6.170;2023-12-20T06:33:00;6.28;;;2.00;;
74371;SDS011;62885;51.374;6.170;2023-12-20T06:35:25;11.43;;;2.60;;
74371;SDS011;62885;51.374;6.170;2023-12-20T06:37:51;9.95;;;2.72;;
74371;SDS011;62885;51.374;6.170;2023-12-20T06:40:17;17.58;;;3.35;;
74371;SDS011;62885;51.374;6.170;2023-12-20T06:42:42;11.77;;;2.77;;
74371;SDS011;62885;51.374;6.170;2023-12-20T06:45:09;9.73;;;2.95;;
74371;SDS011;62885;51.374;6.170;2023-12-20T06:47:35;9.48;;;2.45;;
74371;SDS011;62885;51.374;6.170;2023-12-20T06:50:00;10.40;;;2.50;;
74371;SDS011;62885;51.374;6.170;2023-12-20T06:52:26;9.45;;;2.10;;
74371;SDS011;62885;51.374;6.170;2023-12-20T06:54:51;11.10;;;2.88;;
74371;SDS011;62885;51.374;6.170;2023-12-20T06:57:17;11.65;;;3.28;;
74371;SDS011;62885;51.374;6.170;2023-12-20T06:59:42;10.02;;;2.40;;
74371;SDS011;62885;51.374;6.170;2023-12-20T07:02:10;10.90;;;2.45;;
74371;SDS011;62885;51.374;6.170;2023-12-20T07:04:39;9.73;;;2.45;;
74371;SDS011;62885;51.374;6.170;2023-12-20T07:07:05;10.85;;;2.53;;
74371;SDS011;62885;51.374;6.170;2023-12-20T07:09:32;16.65;;;3.03;;
74371;SDS011;62885;51.374;6.170;2023-12-20T07:11:57;8.27;;;2.30;;
74371;SDS011;62885;51.374;6.170;2023-12-20T07:14:23;12.55;;;3.15;;
74371;SDS011;62885;51.374;6.170;2023-12-20T07:16:48;9.82;;;2.83;;
74371;SDS011;62885;51.374;6.170;2023-12-20T07:19:14;11.50;;;2.17;;
74371;SDS011;62885;51.374;6.170;2023-12-20T07:21:39;11.23;;;2.55;;
74371;SDS011;62885;51.374;6.170;2023-12-20T07:24:04;15.07;;;2.75;;
74371;SDS011;62885;51.374;6.170;2023-12-20T07:26:30;15.35;;;2.63;;
74371;SDS011;62885;51.374;6.170;2023-12-20T07:28:55;10.07;;;3.03;;
74371;SDS011;62885;51.374;6.170;2023-12-20T07:31:20;9.13;;;2.50;;
74371;SDS011;62885;51.374;6.170;2023-12-20T07:33:46;10.02;;;2.80;;
74371;SDS011;62885;51.374;6.170;2023-12-20T07:36:12;12.55;;;3.33;;
74371;SDS011;62885;51.374;6.170;2023-12-20T07:38:37;11.10;;;2.92;;
74371;SDS011;62885;51.374;6.170;2023-12-20T07:41:03;8.90;;;2.80;;
74371;SDS011;62885;51.374;6.170;2023-12-20T07:43:28;10.85;;;2.92;;
74371;SDS011;62885;51.374;6.170;2023-12-20T07:45:53;10.25;;;2.33;;
74371;SDS011;62885;51.374;6.170;2023-12-20T07:48:19;7.35;;;2.22;;
74371;SDS011;62885;51.374;6.170;2023-12-20T07:50:44;9.63;;;2.45;;
74371;SDS011;62885;51.374;6.170;2023-12-20T07:53:09;7.78;;;2.33;;
74371;SDS011;62885;51.374;6.170;2023-12-20T07:55:35;11.85;;;2.38;;
74371;SDS011;62885;51.374;6.170;2023-12-20T07:58:00;10.75;;;2.20;;
74371;SDS011;62885;51.374;6.170;2023-12-20T08:00:26;9.85;;;2.25;;
74371;SDS011;62885;51.374;6.170;2023-12-20T08:02:52;10.82;;;2.60;;
74371;SDS011;62885;51.374;6.170;2023-12-20T08:05:17;9.48;;;2.85;;
74371;SDS011;62885;51.374;6.170;2023-12-20T08:07:42;11.43;;;2.10;;
74371;SDS011;62885;51.374;6.170;2023-12-20T08:10:08;8.38;;;2.45;;
74371;SDS011;62885;51.374;6.170;2023-12-20T08:12:33;9.27;;;2.95;;
74371;SDS011;62885;51.374;6.170;2023-12-20T08:14:59;7.45;;;2.17;;
74371;SDS011;62885;51.374;6.170;2023-12-20T08:17:25;6.13;;;1.83;;
74371;SDS011;62885;51.374;6.170;2023-12-20T08:19:50;11.30;;;2.00;;
74371;SDS011;62885;51.374;6.170;2023-12-20T08:22:16;10.07;;;2.85;;
74371;SDS011;62885;51.374;6.170;2023-12-20T08:24:41;11.52;;;2.33;;
74371;SDS011;62885;51.374;6.170;2023-12-20T08:27:07;11.15;;;2.25;;
74371;SDS011;62885;51.374;6.170;2023-12-20T08:29:32;14.18;;;2.50;;
74371;SDS011;62885;51.374;6.170;2023-12-20T08:31:57;6.68;;;1.77;;
74371;SDS011;62885;51.374;6.170;2023-12-20T08:34:23;9.32;;;2.00;;
74371;SDS011;62885;51.374;6.170;2023-12-20T08:36:48;11.88;;;2.05;;
74371;SDS011;62885;51.374;6.170;2023-12-20T08:39:16;11.23;;;2.03;;
74371;SDS011;62885;51.374;6.170;2023-12-20T08:41:41;10.18;;;3.67;;
74371;SDS011;62885;51.374;6.170;2023-12-20T08:44:06;9.98;;;2.08;;
74371;SDS011;62885;51.374;6.170;2023-12-20T08:46:32;10.68;;;2.15;;
74371;SDS011;62885;51.374;6.170;2023-12-20T08:48:57;12.52;;;2.45;;
74371;SDS011;62885;51.374;6.170;2023-12-20T08:51:22;13.90;;;2.75;;
74371;SDS011;62885;51.374;6.170;2023-12-20T08:53:50;8.80;;;3.17;;
74371;SDS011;62885;51.374;6.170;2023-12-20T08:56:16;7.93;;;2.08;;
74371;SDS011;62885;51.374;6.170;2023-12-20T08:58:42;7.03;;;1.85;;
74371;SDS011;62885;51.374;6.170;2023-12-20T09:01:08;14.40;;;2.72;;
74371;SDS011;62885;51.374;6.170;2023-12-20T09:03:34;10.25;;;2.70;;
74371;SDS011;62885;51.374;6.170;2023-12-20T09:05:59;9.20;;;2.10;;
74371;SDS011;62885;51.374;6.170;2023-12-20T09:08:25;9.90;;;1.95;;
74371;SDS011;62885;51.374;6.170;2023-12-20T09:10:50;6.90;;;2.13;;
74371;SDS011;62885;51.374;6.170;2023-12-20T09:13:16;9.48;;;2.20;;
74371;SDS011;62885;51.374;6.170;2023-12-20T09:15:41;5.53;;;2.17;;
74371;SDS011;62885;51.374;6.170;2023-12-20T09:18:07;12.80;;;3.15;;
74371;SDS011;62885;51.374;6.170;2023-12-20T09:20:32;8.57;;;2.22;;
74371;SDS011;62885;51.374;6.170;2023-12-20T09:22:58;7.55;;;2.22;;
74371;SDS011;62885;51.374;6.170;2023-12-20T09:25:24;15.25;;;2.53;;
74371;SDS011;62885;51.374;6.170;2023-12-20T09:27:50;8.85;;;2.20;;
74371;SDS011;62885;51.374;6.170;2023-12-20T09:30:17;5.60;;;1.65;;
74371;SDS011;62885;51.374;6.170;2023-12-20T09:32:42;8.60;;;1.90;;
74371;SDS011;62885;51.374;6.170;2023-12-20T09:35:08;13.77;;;2.33;;
74371;SDS011;62885;51.374;6.170;2023-12-20T09:37:33;10.35;;;2.03;;
74371;SDS011;62885;51.374;6.170;2023-12-20T09:39:59;9.15;;;1.98;;
74371;SDS011;62885;51.374;6.170;2023-12-20T09:42:29;11.85;;;2.45;;
74371;SDS011;62885;51.374;6.170;2023-12-20T09:44:56;8.82;;;2.05;;
74371;SDS011;62885;51.374;6.170;2023-12-20T09:47:24;9.45;;;2.35;;
74371;SDS011;62885;51.374;6.170;2023-12-20T09:49:50;6.57;;;2.63;;
74371;SDS011;62885;51.374;6.170;2023-12-20T09:52:16;10.85;;;2.60;;
74371;SDS011;62885;51.374;6.170;2023-12-20T09:54:43;10.55;;;2.80;;
74371;SDS011;62885;51.374;6.170;2023-12-20T09:57:09;9.23;;;2.13;;
74371;SDS011;62885;51.374;6.170;2023-12-20T09:59:35;7.18;;;2.17;;
74371;SDS011;62885;51.374;6.170;2023-12-20T10:02:00;6.22;;;2.00;;
74371;SDS011;62885;51.374;6.170;2023-12-20T10:04:28;7.43;;;2.53;;
74371;SDS011;62885;51.374;6.170;2023-12-20T10:06:57;14.82;;;2.80;;
74371;SDS011;62885;51.374;6.170;2023-12-20T10:09:26;7.07;;;2.97;;
74371;SDS011;62885;51.374;6.170;2023-12-20T10:11:55;10.40;;;2.55;;
74371;SDS011;62885;51.374;6.170;2023-12-20T10:14:23;9.02;;;2.20;;
74371;SDS011;62885;51.374;6.170;2023-12-20T10:16:49;11.20;;;2.58;;
74371;SDS011;62885;51.374;6.170;2023-12-20T10:19:16;11.10;;;2.70;;
74371;SDS011;62885;51.374;6.170;2023-12-20T10:21:42;10.10;;;2.42;;
74371;SDS011;62885;51.374;6.170;2023-12-20T10:24:09;12.48;;;2.22;;
74371;SDS011;62885;51.374;6.170;2023-12-20T10:26:42;9.45;;;2.60;;
74371;SDS011;62885;51.374;6.170;2023-12-20T10:29:07;7.88;;;1.88;;
74371;SDS011;62885;51.374;6.170;2023-12-20T10:31:33;16.35;;;2.53;;
74371;SDS011;62885;51.374;6.170;2023-12-20T10:34:00;5.00;;;2.08;;
74371;SDS011;62885;51.374;6.170;2023-12-20T10:36:27;5.25;;;2.30;;
74371;SDS011;62885;51.374;6.170;2023-12-20T10:38:57;12.63;;;2.65;;
74371;SDS011;62885;51.374;6.170;2023-12-20T10:41:27;14.15;;;2.88;;
74371;SDS011;62885;51.374;6.170;2023-12-20T10:43:55;10.95;;;2.72;;
74371;SDS011;62885;51.374;6.170;2023-12-20T10:46:23;10.38;;;2.72;;
74371;SDS011;62885;51.374;6.170;2023-12-20T10:48:51;8.23;;;2.90;;
74371;SDS011;62885;51.374;6.170;2023-12-20T10:51:20;5.47;;;2.03;;
74371;SDS011;62885;51.374;6.170;2023-12-20T10:53:49;13.13;;;2.70;;
74371;SDS011;62885;51.374;6.170;2023-12-20T10:56:16;9.15;;;2.50;;
74371;SDS011;62885;51.374;6.170;2023-12-20T10:58:43;9.65;;;3.22;;
74371;SDS011;62885;51.374;6.170;2023-12-20T11:01:09;11.98;;;2.83;;
74371;SDS011;62885;51.374;6.170;2023-12-20T11:03:38;17.42;;;3.50;;
74371;SDS011;62885;51.374;6.170;2023-12-20T11:06:14;10.07;;;2.88;;
74371;SDS011;62885;51.374;6.170;2023-12-20T11:08:49;7.45;;;2.83;;
74371;SDS011;62885;51.374;6.170;2023-12-20T11:14:05;5.65;;;2.42;;
74371;SDS011;62885;51.374;6.170;2023-12-20T11:16:37;8.98;;;2.95;;
74371;SDS011;62885;51.374;6.170;2023-12-20T11:19:05;7.82;;;2.17;;
74371;SDS011;62885;51.374;6.170;2023-12-20T11:21:31;8.10;;;2.13;;
74371;SDS011;62885;51.374;6.170;2023-12-20T11:23:56;13.13;;;2.95;;
74371;SDS011;62885;51.374;6.170;2023-12-20T11:26:27;9.07;;;2.33;;
74371;SDS011;62885;51.374;6.170;2023-12-20T11:31:59;13.02;;;2.70;;
74371;SDS011;62885;51.374;6.170;2023-12-20T11:34:27;10.82;;;2.53;;
74371;SDS011;62885;51.374;6.170;2023-12-20T11:36:57;6.43;;;2.67;;
74371;SDS011;62885;51.374;6.170;2023-12-20T11:39:24;10.23;;;2.63;;
74371;SDS011;62885;51.374;6.170;2023-12-20T11:41:50;11.88;;;2.55;;
74371;SDS011;62885;51.374;6.170;2023-12-20T11:44:17;18.98;;;2.65;;
74371;SDS011;62885;51.374;6.170;2023-12-20T11:46:42;8.80;;;2.65;;
74371;SDS011;62885;51.374;6.170;2023-12-20T11:49:09;11.00;;;2.72;;
74371;SDS011;62885;51.374;6.170;2023-12-20T11:51:34;6.22;;;2.30;;
74371;SDS011;62885;51.374;6.170;2023-12-20T11:54:00;11.13;;;3.47;;
74371;SDS011;62885;51.374;6.170;2023-12-20T11:56:25;10.32;;;2.80;;
74371;SDS011;62885;51.374;6.170;2023-12-20T11:58:53;8.43;;;2.47;;
74371;SDS011;62885;51.374;6.170;2023-12-20T12:01:19;10.10;;;3.25;;
74371;SDS011;62885;51.374;6.170;2023-12-20T12:03:45;8.20;;;3.05;;
74371;SDS011;62885;51.374;6.170;2023-12-20T12:06:11;8.20;;;2.85;;
74371;SDS011;62885;51.374;6.170;2023-12-20T12:08:38;9.20;;;2.30;;
74371;SDS011;62885;51.374;6.170;2023-12-20T12:11:03;8.93;;;3.78;;
74371;SDS011;62885;51.374;6.170;2023-12-20T12:13:28;11.80;;;2.85;;
74371;SDS011;62885;51.374;6.170;2023-12-20T12:15:54;12.85;;;3.10;;
74371;SDS011;62885;51.374;6.170;2023-12-20T12:18:19;6.50;;;2.53;;
74371;SDS011;62885;51.374;6.170;2023-12-20T12:20:45;10.30;;;3.15;;
74371;SDS011;62885;51.374;6.170;2023-12-20T12:23:10;9.18;;;2.42;;
74371;SDS011;62885;51.374;6.170;2023-12-20T12:25:36;12.13;;;2.83;;
74371;SDS011;62885;51.374;6.170;2023-12-20T12:28:04;8.10;;;3.08;;
74371;SDS011;62885;51.374;6.170;2023-12-20T12:30:30;6.82;;;2.95;;
74371;SDS011;62885;51.374;6.170;2023-12-20T12:32:56;9.77;;;4.32;;
74371;SDS011;62885;51.374;6.170;2023-12-20T12:35:22;11.50;;;3.65;;
74371;SDS011;62885;51.374;6.170;2023-12-20T12:37:48;6.25;;;2.70;;
74371;SDS011;62885;51.374;6.170;2023-12-20T12:40:14;10.05;;;3.80;;
74371;SDS011;62885;51.374;6.170;2023-12-20T12:42:41;10.60;;;3.10;;
74371;SDS011;62885;51.374;6.170;2023-12-20T12:45:08;8.20;;;2.95;;
74371;SDS011;62885;51.374;6.170;2023-12-20T12:47:34;10.93;;;3.45;;
74371;SDS011;62885;51.374;6.170;2023-12-20T12:50:00;7.07;;;3.25;;
74371;SDS011;62885;51.374;6.170;2023-12-20T12:52:26;10.98;;;3.63;;
74371;SDS011;62885;51.374;6.170;2023-12-20T12:54:52;12.52;;;3.45;;
74371;SDS011;62885;51.374;6.170;2023-12-20T12:57:18;7.95;;;3.05;;
74371;SDS011;62885;51.374;6.170;2023-12-20T12:59:44;9.95;;;3.15;;
74371;SDS011;62885;51.374;6.170;2023-12-20T13:02:11;7.57;;;2.95;;
74371;SDS011;62885;51.374;6.170;2023-12-20T13:04:38;9.60;;;2.90;;
74371;SDS011;62885;51.374;6.170;2023-12-20T13:07:03;10.38;;;3.20;;
74371;SDS011;62885;51.374;6.170;2023-12-20T13:09:29;13.65;;;3.80;;
74371;SDS011;62885;51.374;6.170;2023-12-20T13:11:57;12.32;;;4.03;;
74371;SDS011;62885;51.374;6.170;2023-12-20T13:14:23;9.07;;;3.38;;
74371;SDS011;62885;51.374;6.170;2023-12-20T13:16:49;8.20;;;3.42;;
74371;SDS011;62885;51.374;6.170;2023-12-20T13:19:14;7.25;;;3.13;;
74371;SDS011;62885;51.374;6.170;2023-12-20T13:21:40;7.15;;;3.05;;
74371;SDS011;62885;51.374;6.170;2023-12-20T13:24:05;7.45;;;2.72;;
74371;SDS011;62885;51.374;6.170;2023-12-20T13:26:30;11.70;;;3.75;;
74371;SDS011;62885;51.374;6.170;2023-12-20T13:28:56;10.80;;;3.70;;
74371;SDS011;62885;51.374;6.170;2023-12-20T13:31:21;11.23;;;3.72;;
74371;SDS011;62885;51.374;6.170;2023-12-20T13:33:47;8.50;;;3.17;;
74371;SDS011;62885;51.374;6.170;2023-12-20T13:36:12;7.60;;;3.13;;
74371;SDS011;62885;51.374;6.170;2023-12-20T13:38:38;12.45;;;3.80;;
74371;SDS011;62885;51.374;6.170;2023-12-20T13:41:04;10.73;;;3.45;;
74371;SDS011;62885;51.374;6.170;2023-12-20T13:43:29;9.85;;;3.35;;
74371;SDS011;62885;51.374;6.170;2023-12-20T13:45:57;8.95;;;3.47;;
74371;SDS011;62885;51.374;6.170;2023-12-20T13:48:23;9.77;;;3.53;;
74371;SDS011;62885;51.374;6.170;2023-12-20T13:50:48;11.70;;;4.20;;
74371;SDS011;62885;51.374;6.170;2023-12-20T13:53:14;7.47;;;3.67;;
74371;SDS011;62885;51.374;6.170;2023-12-20T13:55:39;10.90;;;4.10;;
74371;SDS011;62885;51.374;6.170;2023-12-20T13:58:05;8.70;;;3.25;;
74371;SDS011;62885;51.374;6.170;2023-12-20T14:00:30;9.30;;;3.15;;
74371;SDS011;62885;51.374;6.170;2023-12-20T14:02:55;13.82;;;3.30;;
74371;SDS011;62885;51.374;6.170;2023-12-20T14:05:21;12.05;;;4.03;;
74371;SDS011;62885;51.374;6.170;2023-12-20T14:07:48;12.52;;;3.38;;
74371;SDS011;62885;51.374;6.170;2023-12-20T14:10:16;10.18;;;3.42;;
74371;SDS011;62885;51.374;6.170;2023-12-20T14:12:41;12.10;;;3.80;;
74371;SDS011;62885;51.374;6.170;2023-12-20T14:15:09;10.43;;;4.32;;
74371;SDS011;62885;51.374;6.170;2023-12-20T14:17:37;10.20;;;2.97;;
74371;SDS011;62885;51.374;6.170;2023-12-20T14:20:04;10.32;;;3.42;;
74371;SDS011;62885;51.374;6.170;2023-12-20T14:22:31;10.32;;;3.80;;
74371;SDS011;62885;51.374;6.170;2023-12-20T14:24:57;14.27;;;3.85;;
74371;SDS011;62885;51.374;6.170;2023-12-20T14:27:23;9.45;;;3.88;;
74371;SDS011;62885;51.374;6.170;2023-12-20T14:29:49;7.60;;;3.25;;
74371;SDS011;62885;51.374;6.170;2023-12-20T14:32:15;10.18;;;3.72;;
74371;SDS011;62885;51.374;6.170;2023-12-20T14:34:41;9.48;;;3.58;;
74371;SDS011;62885;51.374;6.170;2023-12-20T14:37:07;11.48;;;3.40;;
74371;SDS011;62885;51.374;6.170;2023-12-20T14:39:32;11.32;;;4.78;;